| Date | Time | Temp. (oF) | Dew Point (oF) | Rel. Hum. (%) | Press. (in.) | Wind Dir. | Wind Speed (mph) | Hourly Rainfall (in.) |
|
|---|---|---|---|---|---|---|---|---|---|
| 1 | 02/07 | 00:00 | 43 | 33 | 69 | 29.95 | NW | 2 | 0.00 |
| 2 | 02/06 | 23:00 | 45 | 33 | 65 | 29.97 | NW | 6 | 0.00 |
| 3 | 02/06 | 22:00 | 45 | 33 | 63 | 29.97 | NW | 3 | 0.00 |
| 4 | 02/06 | 21:00 | 46 | 32 | 60 | 29.99 | NW | 7 | 0.00 |
| 5 | 02/06 | 20:00 | 47 | 32 | 57 | 30.01 | NW | 6 | 0.00 |
| 6 | 02/06 | 19:00 | 47 | 30 | 53 | 30.02 | NW | 5 | 0.00 |
| 7 | 02/06 | 18:00 | 50 | 30 | 47 | 30.01 | NW | 3 | 0.00 |
| 8 | 02/06 | 17:00 | 55 | 30 | 39 | 30.00 | NW | 2 | 0.00 |
| 9 | 02/06 | 16:00 | 55 | 29 | 37 | 30.00 | NW | 1 | 0.00 |
| 10 | 02/06 | 15:00 | 55 | 28 | 36 | 30.01 | NW | 5 | 0.00 |
| 11 | 02/06 | 14:00 | 54 | 28 | 38 | 30.05 | NW | 2 | 0.00 |
| 12 | 02/06 | 13:00 | 51 | 27 | 41 | 30.09 | NW | 9 | 0.00 |
| 13 | 02/06 | 12:00 | 49 | 27 | 43 | 30.11 | NW | 4 | 0.00 |
| 14 | 02/06 | 11:00 | 46 | 27 | 49 | 30.13 | NW | 8 | 0.00 |
| 15 | 02/06 | 10:00 | 43 | 27 | 54 | 30.14 | NW | 1 | 0.00 |
| 16 | 02/06 | 09:00 | 37 | 28 | 71 | 30.13 | NW | 2 | 0.00 |
| 17 | 02/06 | 08:00 | 30 | 25 | 82 | 30.11 | NW | 0 | 0.00 |
| 18 | 02/06 | 07:00 | 33 | 24 | 72 | 30.11 | NW | 0 | 0.00 |
| 19 | 02/06 | 06:00 | 34 | 24 | 69 | 30.08 | NW | 2 | 0.00 |
| 20 | 02/06 | 05:00 | 35 | 25 | 68 | 30.06 | NW | 0 | 0.00 |
| 21 | 02/06 | 04:00 | 37 | 25 | 63 | 30.04 | NW | 2 | 0.00 |
| 22 | 02/06 | 03:00 | 39 | 26 | 60 | 30.02 | NW | 5 | 0.00 |
| 23 | 02/06 | 02:00 | 38 | 26 | 64 | 29.99 | NW | 1 | 0.00 |
| 24 | 02/06 | 01:00 | 38 | 28 | 67 | 29.98 | NW | 2 | 0.00 |